sensor_id;sensor_type;location;lat;lon;timestamp;P1;durP1;ratioP1;P2;durP2;ratioP2
44822;SDS011;51097;51.984;5.650;2022-10-20T00:00:24;9.25;;;5.72;;
44822;SDS011;51097;51.984;5.650;2022-10-20T00:02:49;12.55;;;5.82;;
44822;SDS011;51097;51.984;5.650;2022-10-20T00:05:15;9.77;;;6.20;;
44822;SDS011;51097;51.984;5.650;2022-10-20T00:07:40;14.35;;;6.63;;
44822;SDS011;51097;51.984;5.650;2022-10-20T00:10:06;9.93;;;5.47;;
44822;SDS011;51097;51.984;5.650;2022-10-20T00:12:32;13.40;;;6.93;;
44822;SDS011;51097;51.984;5.650;2022-10-20T00:14:57;9.52;;;5.97;;
44822;SDS011;51097;51.984;5.650;2022-10-20T00:17:23;6.38;;;5.70;;
44822;SDS011;51097;51.984;5.650;2022-10-20T00:19:49;11.05;;;7.20;;
44822;SDS011;51097;51.984;5.650;2022-10-20T00:22:14;9.60;;;6.20;;
44822;SDS011;51097;51.984;5.650;2022-10-20T00:24:40;7.22;;;6.53;;
44822;SDS011;51097;51.984;5.650;2022-10-20T00:27:05;7.30;;;6.45;;
44822;SDS011;51097;51.984;5.650;2022-10-20T00:29:31;9.77;;;6.53;;
44822;SDS011;51097;51.984;5.650;2022-10-20T00:31:57;10.38;;;7.50;;
44822;SDS011;51097;51.984;5.650;2022-10-20T00:34:22;8.38;;;6.22;;
44822;SDS011;51097;51.984;5.650;2022-10-20T00:36:48;8.18;;;6.32;;
44822;SDS011;51097;51.984;5.650;2022-10-20T00:39:13;10.90;;;7.05;;
44822;SDS011;51097;51.984;5.650;2022-10-20T00:41:39;11.35;;;7.30;;
44822;SDS011;51097;51.984;5.650;2022-10-20T00:47:09;13.40;;;7.38;;
44822;SDS011;51097;51.984;5.650;2022-10-20T00:49:37;15.27;;;7.25;;
44822;SDS011;51097;51.984;5.650;2022-10-20T00:52:03;9.82;;;6.70;;
44822;SDS011;51097;51.984;5.650;2022-10-20T00:54:29;11.88;;;6.65;;
44822;SDS011;51097;51.984;5.650;2022-10-20T00:56:56;12.32;;;7.82;;
44822;SDS011;51097;51.984;5.650;2022-10-20T00:59:25;8.32;;;6.88;;
44822;SDS011;51097;51.984;5.650;2022-10-20T01:01:54;12.32;;;7.05;;
44822;SDS011;51097;51.984;5.650;2022-10-20T01:04:20;13.00;;;7.43;;
44822;SDS011;51097;51.984;5.650;2022-10-20T01:06:46;9.15;;;7.63;;
44822;SDS011;51097;51.984;5.650;2022-10-20T01:09:12;13.13;;;7.60;;
44822;SDS011;51097;51.984;5.650;2022-10-20T01:14:31;11.45;;;7.35;;
44822;SDS011;51097;51.984;5.650;2022-10-20T01:20:10;12.85;;;8.18;;
44822;SDS011;51097;51.984;5.650;2022-10-20T01:29:26;12.27;;;8.75;;
44822;SDS011;51097;51.984;5.650;2022-10-20T01:31:40;11.52;;;8.48;;
44822;SDS011;51097;51.984;5.650;2022-10-20T01:36:55;13.23;;;8.82;;
44822;SDS011;51097;51.984;5.650;2022-10-20T01:39:38;11.93;;;8.40;;
44822;SDS011;51097;51.984;5.650;2022-10-20T01:42:11;14.68;;;7.65;;
44822;SDS011;51097;51.984;5.650;2022-10-20T01:44:46;16.33;;;8.27;;
44822;SDS011;51097;51.984;5.650;2022-10-20T01:47:14;13.95;;;7.82;;
44822;SDS011;51097;51.984;5.650;2022-10-20T01:49:42;13.35;;;8.88;;
44822;SDS011;51097;51.984;5.650;2022-10-20T01:52:10;14.00;;;9.18;;
44822;SDS011;51097;51.984;5.650;2022-10-20T01:54:36;12.00;;;7.95;;
44822;SDS011;51097;51.984;5.650;2022-10-20T01:59:56;10.40;;;8.77;;
44822;SDS011;51097;51.984;5.650;2022-10-20T02:02:31;18.75;;;9.77;;
44822;SDS011;51097;51.984;5.650;2022-10-20T02:10:52;12.15;;;8.73;;
44822;SDS011;51097;51.984;5.650;2022-10-20T02:13:21;11.63;;;8.88;;
44822;SDS011;51097;51.984;5.650;2022-10-20T02:15:52;15.23;;;8.48;;
44822;SDS011;51097;51.984;5.650;2022-10-20T02:18:33;13.90;;;9.00;;
44822;SDS011;51097;51.984;5.650;2022-10-20T02:21:04;11.05;;;8.75;;
44822;SDS011;51097;51.984;5.650;2022-10-20T02:23:31;13.18;;;9.68;;
44822;SDS011;51097;51.984;5.650;2022-10-20T02:28:29;15.20;;;9.43;;
44822;SDS011;51097;51.984;5.650;2022-10-20T02:30:56;15.15;;;9.50;;
44822;SDS011;51097;51.984;5.650;2022-10-20T02:33:22;16.00;;;9.85;;
44822;SDS011;51097;51.984;5.650;2022-10-20T02:35:49;13.63;;;9.48;;
44822;SDS011;51097;51.984;5.650;2022-10-20T02:38:20;16.42;;;10.32;;
44822;SDS011;51097;51.984;5.650;2022-10-20T02:40:46;15.77;;;9.90;;
44822;SDS011;51097;51.984;5.650;2022-10-20T02:43:12;12.30;;;10.13;;
44822;SDS011;51097;51.984;5.650;2022-10-20T02:45:37;14.70;;;9.65;;
44822;SDS011;51097;51.984;5.650;2022-10-20T02:48:03;10.88;;;9.05;;
44822;SDS011;51097;51.984;5.650;2022-10-20T02:50:29;11.90;;;10.05;;
44822;SDS011;51097;51.984;5.650;2022-10-20T02:52:55;12.75;;;8.48;;
44822;SDS011;51097;51.984;5.650;2022-10-20T02:55:20;13.35;;;9.77;;
44822;SDS011;51097;51.984;5.650;2022-10-20T02:57:46;10.70;;;8.55;;
44822;SDS011;51097;51.984;5.650;2022-10-20T03:00:12;13.82;;;9.07;;
44822;SDS011;51097;51.984;5.650;2022-10-20T03:02:38;12.50;;;9.55;;
44822;SDS011;51097;51.984;5.650;2022-10-20T03:05:04;11.02;;;8.80;;
44822;SDS011;51097;51.984;5.650;2022-10-20T03:07:29;14.73;;;9.77;;
44822;SDS011;51097;51.984;5.650;2022-10-20T03:09:55;12.10;;;10.15;;
44822;SDS011;51097;51.984;5.650;2022-10-20T03:12:20;24.88;;;11.45;;
44822;SDS011;51097;51.984;5.650;2022-10-20T03:14:46;12.32;;;9.73;;
44822;SDS011;51097;51.984;5.650;2022-10-20T03:17:12;15.80;;;10.02;;
44822;SDS011;51097;51.984;5.650;2022-10-20T03:19:37;16.52;;;9.98;;
44822;SDS011;51097;51.984;5.650;2022-10-20T03:22:04;12.82;;;9.68;;
44822;SDS011;51097;51.984;5.650;2022-10-20T03:24:30;13.27;;;9.23;;
44822;SDS011;51097;51.984;5.650;2022-10-20T03:26:56;11.80;;;8.73;;
44822;SDS011;51097;51.984;5.650;2022-10-20T03:29:21;14.20;;;9.50;;
44822;SDS011;51097;51.984;5.650;2022-10-20T03:31:47;17.00;;;9.60;;
44822;SDS011;51097;51.984;5.650;2022-10-20T03:34:12;10.68;;;8.73;;
44822;SDS011;51097;51.984;5.650;2022-10-20T03:36:38;14.05;;;9.18;;
44822;SDS011;51097;51.984;5.650;2022-10-20T03:39:03;13.50;;;9.68;;
44822;SDS011;51097;51.984;5.650;2022-10-20T03:41:29;11.98;;;8.73;;
44822;SDS011;51097;51.984;5.650;2022-10-20T03:43:55;11.80;;;8.95;;
44822;SDS011;51097;51.984;5.650;2022-10-20T03:46:20;12.20;;;8.95;;
44822;SDS011;51097;51.984;5.650;2022-10-20T03:48:46;15.32;;;9.65;;
44822;SDS011;51097;51.984;5.650;2022-10-20T03:51:12;14.10;;;10.38;;
44822;SDS011;51097;51.984;5.650;2022-10-20T03:53:38;13.98;;;9.32;;
44822;SDS011;51097;51.984;5.650;2022-10-20T03:56:14;13.20;;;9.55;;
44822;SDS011;51097;51.984;5.650;2022-10-20T03:58:42;14.02;;;10.35;;
44822;SDS011;51097;51.984;5.650;2022-10-20T04:01:08;14.68;;;10.18;;
44822;SDS011;51097;51.984;5.650;2022-10-20T04:03:41;15.07;;;9.63;;
44822;SDS011;51097;51.984;5.650;2022-10-20T04:06:08;14.77;;;9.95;;
44822;SDS011;51097;51.984;5.650;2022-10-20T04:08:35;15.85;;;10.95;;
44822;SDS011;51097;51.984;5.650;2022-10-20T04:11:01;13.70;;;10.02;;
44822;SDS011;51097;51.984;5.650;2022-10-20T04:13:26;14.43;;;9.70;;
44822;SDS011;51097;51.984;5.650;2022-10-20T04:15:52;14.00;;;9.70;;
44822;SDS011;51097;51.984;5.650;2022-10-20T04:18:17;18.30;;;10.13;;
44822;SDS011;51097;51.984;5.650;2022-10-20T04:20:43;12.32;;;9.70;;
44822;SDS011;51097;51.984;5.650;2022-10-20T04:23:08;18.60;;;10.45;;
44822;SDS011;51097;51.984;5.650;2022-10-20T04:25:34;19.35;;;10.57;;
44822;SDS011;51097;51.984;5.650;2022-10-20T04:28:02;13.50;;;10.23;;
44822;SDS011;51097;51.984;5.650;2022-10-20T04:30:28;12.57;;;9.80;;
44822;SDS011;51097;51.984;5.650;2022-10-20T04:32:54;17.25;;;11.57;;
44822;SDS011;51097;51.984;5.650;2022-10-20T04:35:19;13.32;;;9.35;;
44822;SDS011;51097;51.984;5.650;2022-10-20T04:37:45;14.45;;;10.57;;
44822;SDS011;51097;51.984;5.650;2022-10-20T04:40:10;15.65;;;11.02;;
44822;SDS011;51097;51.984;5.650;2022-10-20T04:42:36;17.75;;;11.20;;
44822;SDS011;51097;51.984;5.650;2022-10-20T04:45:01;12.75;;;9.45;;
44822;SDS011;51097;51.984;5.650;2022-10-20T04:47:31;15.48;;;9.98;;
44822;SDS011;51097;51.984;5.650;2022-10-20T04:49:57;15.25;;;10.43;;
44822;SDS011;51097;51.984;5.650;2022-10-20T04:52:22;13.75;;;10.55;;
44822;SDS011;51097;51.984;5.650;2022-10-20T04:54:48;14.98;;;10.73;;
44822;SDS011;51097;51.984;5.650;2022-10-20T04:57:14;14.25;;;10.13;;
44822;SDS011;51097;51.984;5.650;2022-10-20T04:59:39;13.57;;;10.35;;
44822;SDS011;51097;51.984;5.650;2022-10-20T05:02:05;16.92;;;11.30;;
44822;SDS011;51097;51.984;5.650;2022-10-20T05:04:30;17.48;;;11.55;;
44822;SDS011;51097;51.984;5.650;2022-10-20T05:06:56;13.88;;;10.38;;
44822;SDS011;51097;51.984;5.650;2022-10-20T05:09:22;19.92;;;11.18;;
44822;SDS011;51097;51.984;5.650;2022-10-20T05:11:47;20.50;;;10.38;;
44822;SDS011;51097;51.984;5.650;2022-10-20T05:14:13;15.60;;;11.02;;
44822;SDS011;51097;51.984;5.650;2022-10-20T05:16:38;16.77;;;11.02;;
44822;SDS011;51097;51.984;5.650;2022-10-20T05:19:04;12.50;;;10.23;;
44822;SDS011;51097;51.984;5.650;2022-10-20T05:21:30;14.30;;;11.23;;
44822;SDS011;51097;51.984;5.650;2022-10-20T05:23:56;14.63;;;11.15;;
44822;SDS011;51097;51.984;5.650;2022-10-20T05:26:23;15.43;;;10.35;;
44822;SDS011;51097;51.984;5.650;2022-10-20T05:28:50;19.38;;;11.23;;
44822;SDS011;51097;51.984;5.650;2022-10-20T05:31:17;14.77;;;11.05;;
44822;SDS011;51097;51.984;5.650;2022-10-20T05:33:45;12.93;;;10.73;;
44822;SDS011;51097;51.984;5.650;2022-10-20T05:36:15;19.08;;;11.20;;
44822;SDS011;51097;51.984;5.650;2022-10-20T05:38:42;17.63;;;11.50;;
44822;SDS011;51097;51.984;5.650;2022-10-20T05:41:08;13.43;;;10.05;;
44822;SDS011;51097;51.984;5.650;2022-10-20T05:43:36;14.70;;;10.68;;
44822;SDS011;51097;51.984;5.650;2022-10-20T05:46:03;14.27;;;11.65;;
44822;SDS011;51097;51.984;5.650;2022-10-20T05:48:29;15.32;;;10.75;;
44822;SDS011;51097;51.984;5.650;2022-10-20T05:50:55;12.80;;;11.43;;
44822;SDS011;51097;51.984;5.650;2022-10-20T05:53:30;16.67;;;10.40;;
44822;SDS011;51097;51.984;5.650;2022-10-20T05:56:00;13.98;;;10.57;;
44822;SDS011;51097;51.984;5.650;2022-10-20T05:58:27;14.00;;;11.30;;
44822;SDS011;51097;51.984;5.650;2022-10-20T06:00:52;15.70;;;11.23;;
44822;SDS011;51097;51.984;5.650;2022-10-20T06:03:18;14.57;;;10.98;;
44822;SDS011;51097;51.984;5.650;2022-10-20T06:05:44;13.57;;;10.98;;
44822;SDS011;51097;51.984;5.650;2022-10-20T06:08:09;17.52;;;10.85;;
44822;SDS011;51097;51.984;5.650;2022-10-20T06:10:35;15.38;;;12.75;;
44822;SDS011;51097;51.984;5.650;2022-10-20T06:13:00;14.45;;;10.63;;
44822;SDS011;51097;51.984;5.650;2022-10-20T06:15:26;17.17;;;11.43;;
44822;SDS011;51097;51.984;5.650;2022-10-20T06:17:51;17.13;;;11.25;;
44822;SDS011;51097;51.984;5.650;2022-10-20T06:20:17;15.57;;;10.93;;
44822;SDS011;51097;51.984;5.650;2022-10-20T06:22:42;13.07;;;10.90;;
44822;SDS011;51097;51.984;5.650;2022-10-20T06:25:08;13.73;;;10.77;;
44822;SDS011;51097;51.984;5.650;2022-10-20T06:27:33;17.40;;;10.48;;
44822;SDS011;51097;51.984;5.650;2022-10-20T06:29:59;18.48;;;12.05;;
44822;SDS011;51097;51.984;5.650;2022-10-20T06:32:24;14.10;;;11.57;;
44822;SDS011;51097;51.984;5.650;2022-10-20T06:34:50;15.65;;;10.60;;
44822;SDS011;51097;51.984;5.650;2022-10-20T06:37:17;15.45;;;11.35;;
44822;SDS011;51097;51.984;5.650;2022-10-20T06:39:43;17.13;;;11.98;;
44822;SDS011;51097;51.984;5.650;2022-10-20T06:42:08;16.00;;;11.27;;
44822;SDS011;51097;51.984;5.650;2022-10-20T06:44:34;17.80;;;12.15;;
44822;SDS011;51097;51.984;5.650;2022-10-20T06:46:59;17.70;;;11.05;;
44822;SDS011;51097;51.984;5.650;2022-10-20T06:49:25;14.13;;;11.07;;
44822;SDS011;51097;51.984;5.650;2022-10-20T06:51:50;15.15;;;10.57;;
44822;SDS011;51097;51.984;5.650;2022-10-20T06:54:16;14.68;;;11.13;;
44822;SDS011;51097;51.984;5.650;2022-10-20T06:56:42;15.63;;;11.02;;
44822;SDS011;51097;51.984;5.650;2022-10-20T06:59:08;13.73;;;11.65;;
44822;SDS011;51097;51.984;5.650;2022-10-20T07:01:34;15.75;;;11.25;;
44822;SDS011;51097;51.984;5.650;2022-10-20T07:04:02;14.85;;;11.60;;
44822;SDS011;51097;51.984;5.650;2022-10-20T07:06:37;20.23;;;12.32;;
44822;SDS011;51097;51.984;5.650;2022-10-20T07:09:05;14.75;;;11.35;;
44822;SDS011;51097;51.984;5.650;2022-10-20T07:11:35;18.35;;;12.70;;
44822;SDS011;51097;51.984;5.650;2022-10-20T07:14:01;18.25;;;12.27;;
44822;SDS011;51097;51.984;5.650;2022-10-20T07:16:28;12.65;;;10.65;;
44822;SDS011;51097;51.984;5.650;2022-10-20T07:18:55;15.25;;;12.23;;
44822;SDS011;51097;51.984;5.650;2022-10-20T07:21:25;15.05;;;11.77;;
44822;SDS011;51097;51.984;5.650;2022-10-20T07:26:19;15.82;;;11.68;;
44822;SDS011;51097;51.984;5.650;2022-10-20T07:28:49;20.85;;;12.30;;
44822;SDS011;51097;51.984;5.650;2022-10-20T07:31:24;18.15;;;12.00;;
44822;SDS011;51097;51.984;5.650;2022-10-20T07:33:51;19.75;;;12.57;;
44822;SDS011;51097;51.984;5.650;2022-10-20T07:36:20;16.58;;;11.88;;
44822;SDS011;51097;51.984;5.650;2022-10-20T07:38:48;14.95;;;13.00;;
44822;SDS011;51097;51.984;5.650;2022-10-20T07:41:14;16.17;;;12.40;;
44822;SDS011;51097;51.984;5.650;2022-10-20T07:43:40;18.60;;;12.50;;
44822;SDS011;51097;51.984;5.650;2022-10-20T07:46:07;12.23;;;10.55;;
44822;SDS011;51097;51.984;5.650;2022-10-20T07:48:33;18.85;;;12.57;;
44822;SDS011;51097;51.984;5.650;2022-10-20T07:51:15;18.65;;;11.30;;
44822;SDS011;51097;51.984;5.650;2022-10-20T07:54:07;15.52;;;12.25;;
44822;SDS011;51097;51.984;5.650;2022-10-20T07:56:40;14.07;;;12.07;;
44822;SDS011;51097;51.984;5.650;2022-10-20T07:59:07;23.70;;;13.57;;
44822;SDS011;51097;51.984;5.650;2022-10-20T08:01:33;15.82;;;11.55;;
44822;SDS011;51097;51.984;5.650;2022-10-20T08:03:59;15.55;;;11.30;;
44822;SDS011;51097;51.984;5.650;2022-10-20T08:06:24;15.38;;;11.98;;
44822;SDS011;51097;51.984;5.650;2022-10-20T08:08:50;14.52;;;11.85;;
44822;SDS011;51097;51.984;5.650;2022-10-20T08:11:17;14.38;;;11.60;;
44822;SDS011;51097;51.984;5.650;2022-10-20T08:13:42;19.27;;;11.73;;
44822;SDS011;51097;51.984;5.650;2022-10-20T08:16:08;16.00;;;11.68;;
44822;SDS011;51097;51.984;5.650;2022-10-20T08:18:36;16.90;;;12.07;;
44822;SDS011;51097;51.984;5.650;2022-10-20T08:21:12;18.83;;;12.27;;
44822;SDS011;51097;51.984;5.650;2022-10-20T08:23:43;16.00;;;11.30;;
44822;SDS011;51097;51.984;5.650;2022-10-20T08:26:11;17.20;;;11.40;;
44822;SDS011;51097;51.984;5.650;2022-10-20T08:28:40;21.52;;;12.80;;
44822;SDS011;51097;51.984;5.650;2022-10-20T08:31:06;17.98;;;11.88;;
44822;SDS011;51097;51.984;5.650;2022-10-20T08:33:32;14.50;;;11.15;;
44822;SDS011;51097;51.984;5.650;2022-10-20T08:36:08;15.82;;;11.07;;
44822;SDS011;51097;51.984;5.650;2022-10-20T08:38:37;16.73;;;11.63;;
44822;SDS011;51097;51.984;5.650;2022-10-20T08:41:04;23.48;;;12.10;;
44822;SDS011;51097;51.984;5.650;2022-10-20T08:43:35;14.40;;;11.15;;
44822;SDS011;51097;51.984;5.650;2022-10-20T08:46:05;15.75;;;12.40;;
44822;SDS011;51097;51.984;5.650;2022-10-20T08:48:34;15.03;;;11.43;;
44822;SDS011;51097;51.984;5.650;2022-10-20T08:51:00;17.38;;;11.45;;
44822;SDS011;51097;51.984;5.650;2022-10-20T08:53:25;15.23;;;11.88;;
44822;SDS011;51097;51.984;5.650;2022-10-20T08:56:03;16.40;;;10.82;;
44822;SDS011;51097;51.984;5.650;2022-10-20T08:58:33;16.30;;;11.95;;
44822;SDS011;51097;51.984;5.650;2022-10-20T09:00:59;17.42;;;11.38;;
44822;SDS011;51097;51.984;5.650;2022-10-20T09:03:29;16.27;;;12.38;;
44822;SDS011;51097;51.984;5.650;2022-10-20T09:08:30;18.52;;;11.88;;
44822;SDS011;51097;51.984;5.650;2022-10-20T09:10:58;16.35;;;12.23;;
44822;SDS011;51097;51.984;5.650;2022-10-20T09:13:24;17.23;;;12.13;;
44822;SDS011;51097;51.984;5.650;2022-10-20T09:15:55;14.25;;;12.02;;
44822;SDS011;51097;51.984;5.650;2022-10-20T09:18:24;18.73;;;11.63;;
44822;SDS011;51097;51.984;5.650;2022-10-20T09:23:21;17.60;;;11.45;;
44822;SDS011;51097;51.984;5.650;2022-10-20T09:25:49;14.35;;;12.13;;
44822;SDS011;51097;51.984;5.650;2022-10-20T09:28:20;14.23;;;11.82;;
44822;SDS011;51097;51.984;5.650;2022-10-20T09:30:52;14.02;;;11.98;;
44822;SDS011;51097;51.984;5.650;2022-10-20T09:33:20;15.27;;;11.68;;
44822;SDS011;51097;51.984;5.650;2022-10-20T09:35:46;16.95;;;11.43;;
44822;SDS011;51097;51.984;5.650;2022-10-20T09:43:23;23.33;;;11.40;;
44822;SDS011;51097;51.984;5.650;2022-10-20T09:45:54;18.02;;;12.15;;
44822;SDS011;51097;51.984;5.650;2022-10-20T09:48:27;13.68;;;12.10;;
44822;SDS011;51097;51.984;5.650;2022-10-20T09:51:00;13.48;;;11.40;;
44822;SDS011;51097;51.984;5.650;2022-10-20T09:55:53;14.13;;;12.20;;
44822;SDS011;51097;51.984;5.650;2022-10-20T10:00:59;17.02;;;12.25;;
44822;SDS011;51097;51.984;5.650;2022-10-20T10:03:27;19.30;;;12.35;;
44822;SDS011;51097;51.984;5.650;2022-10-20T10:06:02;20.83;;;13.88;;
44822;SDS011;51097;51.984;5.650;2022-10-20T10:09:01;14.75;;;11.60;;
44822;SDS011;51097;51.984;5.650;2022-10-20T10:11:32;14.57;;;12.48;;
44822;SDS011;51097;51.984;5.650;2022-10-20T10:14:00;21.08;;;12.23;;
44822;SDS011;51097;51.984;5.650;2022-10-20T10:16:26;19.60;;;12.27;;
44822;SDS011;51097;51.984;5.650;2022-10-20T10:19:02;15.23;;;13.02;;
44822;SDS011;51097;51.984;5.650;2022-10-20T10:21:29;15.25;;;12.02;;
44822;SDS011;51097;51.984;5.650;2022-10-20T10:24:10;13.93;;;11.68;;
44822;SDS011;51097;51.984;5.650;2022-10-20T10:26:54;17.15;;;13.85;;
44822;SDS011;51097;51.984;5.650;2022-10-20T10:29:25;16.52;;;12.57;;
44822;SDS011;51097;51.984;5.650;2022-10-20T10:37:14;14.98;;;11.93;;
44822;SDS011;51097;51.984;5.650;2022-10-20T10:39:41;17.15;;;11.95;;
44822;SDS011;51097;51.984;5.650;2022-10-20T10:45:16;17.63;;;11.75;;
44822;SDS011;51097;51.984;5.650;2022-10-20T10:48:04;16.73;;;12.15;;
44822;SDS011;51097;51.984;5.650;2022-10-20T10:56:49;18.75;;;12.70;;
44822;SDS011;51097;51.984;5.650;2022-10-20T10:59:27;29.67;;;14.38;;
44822;SDS011;51097;51.984;5.650;2022-10-20T11:04:45;19.08;;;13.43;;
44822;SDS011;51097;51.984;5.650;2022-10-20T11:07:40;16.50;;;13.30;;
44822;SDS011;51097;51.984;5.650;2022-10-20T11:21:49;16.80;;;13.88;;
44822;SDS011;51097;51.984;5.650;2022-10-20T11:27:19;17.05;;;13.43;;
44822;SDS011;51097;51.984;5.650;2022-10-20T11:29:50;21.88;;;14.68;;
44822;SDS011;51097;51.984;5.650;2022-10-20T11:32:29;26.13;;;16.25;;
44822;SDS011;51097;51.984;5.650;2022-10-20T11:35:03;17.98;;;14.02;;
44822;SDS011;51097;51.984;5.650;2022-10-20T11:37:50;18.65;;;15.32;;
44822;SDS011;51097;51.984;5.650;2022-10-20T11:40:38;22.77;;;15.63;;
44822;SDS011;51097;51.984;5.650;2022-10-20T11:43:12;20.45;;;16.25;;
44822;SDS011;51097;51.984;5.650;2022-10-20T11:45:48;21.77;;;14.63;;
44822;SDS011;51097;51.984;5.650;2022-10-20T11:48:30;18.23;;;15.10;;
44822;SDS011;51097;51.984;5.650;2022-10-20T11:51:11;23.65;;;16.52;;
44822;SDS011;51097;51.984;5.650;2022-10-20T12:05:17;18.38;;;16.23;;
44822;SDS011;51097;51.984;5.650;2022-10-20T12:08:49;21.15;;;16.50;;
44822;SDS011;51097;51.984;5.650;2022-10-20T12:19:21;18.73;;;16.23;;
44822;SDS011;51097;51.984;5.650;2022-10-20T12:25:10;20.02;;;16.27;;
44822;SDS011;51097;51.984;5.650;2022-10-20T12:27:17;27.80;;;17.90;;
44822;SDS011;51097;51.984;5.650;2022-10-20T12:29:46;23.40;;;17.85;;
44822;SDS011;51097;51.984;5.650;2022-10-20T12:34:49;24.15;;;18.48;;
44822;SDS011;51097;51.984;5.650;2022-10-20T12:39:48;24.40;;;18.35;;
44822;SDS011;51097;51.984;5.650;2022-10-20T12:42:50;23.35;;;17.23;;
44822;SDS011;51097;51.984;5.650;2022-10-20T12:47:47;27.63;;;19.38;;
44822;SDS011;51097;51.984;5.650;2022-10-20T12:50:24;28.60;;;18.73;;
44822;SDS011;51097;51.984;5.650;2022-10-20T12:55:58;22.65;;;18.65;;
44822;SDS011;51097;51.984;5.650;2022-10-20T12:58:30;25.75;;;16.35;;
44822;SDS011;51097;51.984;5.650;2022-10-20T13:16:36;26.23;;;17.90;;
44822;SDS011;51097;51.984;5.650;2022-10-20T13:19:13;26.48;;;19.13;;
44822;SDS011;51097;51.984;5.650;2022-10-20T13:21:46;27.30;;;19.38;;
44822;SDS011;51097;51.984;5.650;2022-10-20T13:24:29;21.88;;;18.05;;
44822;SDS011;51097;51.984;5.650;2022-10-20T13:27:00;26.00;;;19.33;;
44822;SDS011;51097;51.984;5.650;2022-10-20T13:29:38;26.10;;;19.27;;
44822;SDS011;51097;51.984;5.650;2022-10-20T13:37:57;22.08;;;18.35;;
44822;SDS011;51097;51.984;5.650;2022-10-20T13:40:31;24.23;;;18.55;;
44822;SDS011;51097;51.984;5.650;2022-10-20T13:43:27;24.65;;;19.88;;
44822;SDS011;51097;51.984;5.650;2022-10-20T13:49:07;25.60;;;18.48;;
44822;SDS011;51097;51.984;5.650;2022-10-20T13:51:51;24.52;;;18.85;;
44822;SDS011;51097;51.984;5.650;2022-10-20T13:54:21;23.30;;;19.13;;
44822;SDS011;51097;51.984;5.650;2022-10-20T13:56:53;28.67;;;21.42;;
44822;SDS011;51097;51.984;5.650;2022-10-20T13:59:20;24.25;;;18.02;;
44822;SDS011;51097;51.984;5.650;2022-10-20T14:01:48;23.58;;;19.33;;
44822;SDS011;51097;51.984;5.650;2022-10-20T14:04:28;24.92;;;18.05;;
44822;SDS011;51097;51.984;5.650;2022-10-20T14:07:04;23.45;;;18.00;;
44822;SDS011;51097;51.984;5.650;2022-10-20T14:09:34;28.02;;;19.40;;
44822;SDS011;51097;51.984;5.650;2022-10-20T14:14:32;26.05;;;19.25;;
44822;SDS011;51097;51.984;5.650;2022-10-20T14:17:02;23.15;;;19.17;;
44822;SDS011;51097;51.984;5.650;2022-10-20T14:19:29;23.02;;;17.33;;
44822;SDS011;51097;51.984;5.650;2022-10-20T14:21:58;23.98;;;19.38;;
44822;SDS011;51097;51.984;5.650;2022-10-20T14:24:39;21.67;;;17.58;;
44822;SDS011;51097;51.984;5.650;2022-10-20T14:27:12;22.00;;;18.27;;
44822;SDS011;51097;51.984;5.650;2022-10-20T14:29:44;20.85;;;18.55;;
44822;SDS011;51097;51.984;5.650;2022-10-20T14:32:26;23.63;;;17.77;;
44822;SDS011;51097;51.984;5.650;2022-10-20T14:35:15;24.65;;;18.42;;
44822;SDS011;51097;51.984;5.650;2022-10-20T14:37:50;25.52;;;18.40;;
44822;SDS011;51097;51.984;5.650;2022-10-20T14:40:24;25.10;;;18.35;;
44822;SDS011;51097;51.984;5.650;2022-10-20T14:42:55;23.48;;;19.60;;
44822;SDS011;51097;51.984;5.650;2022-10-20T14:45:36;25.05;;;18.13;;
44822;SDS011;51097;51.984;5.650;2022-10-20T14:48:01;28.75;;;19.23;;
44822;SDS011;51097;51.984;5.650;2022-10-20T14:50:32;22.98;;;17.90;;
44822;SDS011;51097;51.984;5.650;2022-10-20T14:53:32;23.50;;;18.48;;
44822;SDS011;51097;51.984;5.650;2022-10-20T14:55:56;22.15;;;18.25;;
44822;SDS011;51097;51.984;5.650;2022-10-20T14:58:38;21.30;;;17.60;;
44822;SDS011;51097;51.984;5.650;2022-10-20T15:01:28;21.77;;;17.77;;
44822;SDS011;51097;51.984;5.650;2022-10-20T15:04:03;28.65;;;20.55;;
44822;SDS011;51097;51.984;5.650;2022-10-20T15:06:30;23.85;;;18.25;;
44822;SDS011;51097;51.984;5.650;2022-10-20T15:08:56;25.08;;;19.08;;
44822;SDS011;51097;51.984;5.650;2022-10-20T15:11:23;21.15;;;17.45;;
44822;SDS011;51097;51.984;5.650;2022-10-20T15:13:51;19.13;;;16.98;;
44822;SDS011;51097;51.984;5.650;2022-10-20T15:19:10;20.95;;;17.92;;
44822;SDS011;51097;51.984;5.650;2022-10-20T15:24:35;21.48;;;17.98;;
44822;SDS011;51097;51.984;5.650;2022-10-20T15:27:01;24.63;;;18.63;;
44822;SDS011;51097;51.984;5.650;2022-10-20T15:29:27;22.80;;;17.25;;
44822;SDS011;51097;51.984;5.650;2022-10-20T15:31:54;22.45;;;18.08;;
44822;SDS011;51097;51.984;5.650;2022-10-20T15:34:20;24.05;;;18.17;;
44822;SDS011;51097;51.984;5.650;2022-10-20T15:36:46;20.45;;;18.25;;
44822;SDS011;51097;51.984;5.650;2022-10-20T15:39:12;21.83;;;17.50;;
44822;SDS011;51097;51.984;5.650;2022-10-20T15:41:38;21.58;;;17.95;;
44822;SDS011;51097;51.984;5.650;2022-10-20T15:44:11;23.05;;;18.38;;
44822;SDS011;51097;51.984;5.650;2022-10-20T15:46:39;28.17;;;19.73;;
44822;SDS011;51097;51.984;5.650;2022-10-20T15:49:06;22.45;;;18.10;;
44822;SDS011;51097;51.984;5.650;2022-10-20T15:51:33;23.17;;;17.55;;
44822;SDS011;51097;51.984;5.650;2022-10-20T15:54:00;26.20;;;18.73;;
44822;SDS011;51097;51.984;5.650;2022-10-20T15:56:26;24.92;;;17.25;;
44822;SDS011;51097;51.984;5.650;2022-10-20T15:58:52;22.52;;;18.25;;
44822;SDS011;51097;51.984;5.650;2022-10-20T16:01:18;24.65;;;18.95;;
44822;SDS011;51097;51.984;5.650;2022-10-20T16:03:45;27.73;;;19.13;;
44822;SDS011;51097;51.984;5.650;2022-10-20T16:06:11;22.92;;;18.23;;
44822;SDS011;51097;51.984;5.650;2022-10-20T16:08:38;24.35;;;18.88;;
44822;SDS011;51097;51.984;5.650;2022-10-20T16:11:04;23.73;;;17.85;;
44822;SDS011;51097;51.984;5.650;2022-10-20T16:13:31;25.52;;;18.50;;
44822;SDS011;51097;51.984;5.650;2022-10-20T16:15:57;21.58;;;17.90;;
44822;SDS011;51097;51.984;5.650;2022-10-20T16:18:23;22.92;;;19.13;;
44822;SDS011;51097;51.984;5.650;2022-10-20T16:20:49;24.20;;;19.08;;
44822;SDS011;51097;51.984;5.650;2022-10-20T16:23:14;25.65;;;18.48;;
44822;SDS011;51097;51.984;5.650;2022-10-20T16:25:40;31.00;;;20.65;;
44822;SDS011;51097;51.984;5.650;2022-10-20T16:28:06;22.25;;;17.63;;
44822;SDS011;51097;51.984;5.650;2022-10-20T16:30:31;24.00;;;17.30;;
44822;SDS011;51097;51.984;5.650;2022-10-20T16:32:57;27.30;;;18.17;;
44822;SDS011;51097;51.984;5.650;2022-10-20T16:35:23;25.27;;;18.13;;
44822;SDS011;51097;51.984;5.650;2022-10-20T16:37:48;22.83;;;18.90;;
44822;SDS011;51097;51.984;5.650;2022-10-20T16:40:14;27.17;;;19.83;;
44822;SDS011;51097;51.984;5.650;2022-10-20T16:42:40;22.85;;;18.85;;
44822;SDS011;51097;51.984;5.650;2022-10-20T16:45:05;25.75;;;20.30;;
44822;SDS011;51097;51.984;5.650;2022-10-20T16:47:31;26.08;;;19.10;;
44822;SDS011;51097;51.984;5.650;2022-10-20T16:49:57;22.88;;;18.27;;
44822;SDS011;51097;51.984;5.650;2022-10-20T16:52:22;26.52;;;19.48;;
44822;SDS011;51097;51.984;5.650;2022-10-20T16:54:48;26.55;;;20.02;;
44822;SDS011;51097;51.984;5.650;2022-10-20T16:57:14;23.85;;;20.23;;
44822;SDS011;51097;51.984;5.650;2022-10-20T16:59:39;26.95;;;19.88;;
44822;SDS011;51097;51.984;5.650;2022-10-20T17:02:06;22.98;;;19.83;;